Time;durP1;ratioP1;P1;durP2;ratioP2;P2;SDS_P1;SDS_P2;PMS_P1;PMS_P2;Temp;Humidity;BMP_temperature;BMP_pressure;BME280_temperature;BME280_humidity;BME280_pressure;Samples;Min_cycle;Max_cycle;Signal;HPM_P1;HPM_P2
2022/07/05 00:00:57;;;;;;;5.18;2.92;;;;;;;;;;5039824;28;20026;-64
2022/07/05 00:03:22;;;;;;;3.78;2.42;;;;;;;;;;5036631;28;20064;-64
2022/07/05 00:05:48;;;;;;;3.35;2.58;;;;;;;;;;5040391;28;20042;-64
2022/07/05 00:08:13;;;;;;;5.47;2.70;;;;;;;;;;5046276;28;20503;-64
2022/07/05 00:10:39;;;;;;;3.55;2.45;;;;;;;;;;5044912;28;20436;-64
2022/07/05 00:13:05;;;;;;;4.38;2.60;;;;;;;;;;5045852;28;20024;-64
2022/07/05 00:15:31;;;;;;;3.67;2.60;;;;;;;;;;5047886;28;20495;-64
2022/07/05 00:17:56;;;;;;;3.88;2.55;;;;;;;;;;5047705;28;20082;-64
2022/07/05 00:20:22;;;;;;;4.13;2.58;;;;;;;;;;5036269;28;21087;-64
2022/07/05 00:22:47;;;;;;;6.18;2.65;;;;;;;;;;5041959;28;20052;-64
2022/07/05 00:25:13;;;;;;;3.55;2.80;;;;;;;;;;5046768;28;20033;-64
2022/07/05 00:27:39;;;;;;;4.47;2.70;;;;;;;;;;5047315;28;20480;-64
2022/07/05 00:30:05;;;;;;;5.78;2.72;;;;;;;;;;5047633;28;20057;-64
2022/07/05 00:32:31;;;;;;;6.03;2.90;;;;;;;;;;5047437;28;20033;-64
2022/07/05 00:34:56;;;;;;;3.28;2.30;;;;;;;;;;5038594;28;20033;-64
2022/07/05 00:37:22;;;;;;;3.40;2.70;;;;;;;;;;5044242;28;20503;-64
2022/07/05 00:39:47;;;;;;;6.30;2.45;;;;;;;;;;5040179;28;20124;-64
2022/07/05 00:42:12;;;;;;;4.05;2.60;;;;;;;;;;5044487;28;20032;-64
2022/07/05 00:44:41;;;;;;;4.68;2.85;;;;;;;;;;5047210;28;20032;-64
2022/07/05 00:47:09;;;;;;;5.30;2.67;;;;;;;;;;5047390;28;20458;-64
2022/07/05 00:49:35;;;;;;;3.53;2.30;;;;;;;;;;5044316;28;20094;-64
2022/07/05 00:52:01;;;;;;;4.30;2.30;;;;;;;;;;5043197;28;20017;-64
2022/07/05 00:54:32;;;;;;;4.03;2.38;;;;;;;;;;5046332;28;20074;-64
2022/07/05 00:56:58;;;;;;;3.58;2.38;;;;;;;;;;5042566;28;20033;-64
2022/07/05 00:59:23;;;;;;;4.15;2.30;;;;;;;;;;5046585;28;20040;-64
2022/07/05 01:01:49;;;;;;;3.50;2.20;;;;;;;;;;5048123;28;20044;-64
2022/07/05 01:04:14;;;;;;;3.60;2.35;;;;;;;;;;5042162;28;20426;-64
2022/07/05 01:06:43;;;;;;;4.82;2.65;;;;;;;;;;5048315;28;20052;-64
2022/07/05 01:09:12;;;;;;;3.85;2.08;;;;;;;;;;5047915;28;20032;-64
2022/07/05 01:11:38;;;;;;;7.63;2.53;;;;;;;;;;5045027;28;20033;-64
2022/07/05 01:14:04;;;;;;;4.32;2.60;;;;;;;;;;5050671;28;20033;-64
2022/07/05 01:16:29;;;;;;;4.55;2.20;;;;;;;;;;5050809;28;20124;-64
2022/07/05 01:18:55;;;;;;;3.30;2.20;;;;;;;;;;5051142;28;20028;-64
2022/07/05 01:21:22;;;;;;;2.35;2.10;;;;;;;;;;5049616;28;20025;-64
2022/07/05 01:23:49;;;;;;;3.03;2.10;;;;;;;;;;5043389;28;20079;-64
2022/07/05 01:26:15;;;;;;;4.70;2.13;;;;;;;;;;5046751;28;20037;-64
2022/07/05 01:28:40;;;;;;;2.90;2.10;;;;;;;;;;5050647;28;20041;-64
2022/07/05 01:31:06;;;;;;;3.33;2.10;;;;;;;;;;5050288;28;20067;-64
2022/07/05 01:33:32;;;;;;;3.70;2.30;;;;;;;;;;5050383;28;20021;-64
2022/07/05 01:35:58;;;;;;;2.53;1.90;;;;;;;;;;5047278;28;20029;-65
2022/07/05 01:38:24;;;;;;;3.38;2.17;;;;;;;;;;5048249;28;20040;-64
2022/07/05 01:40:51;;;;;;;3.13;2.22;;;;;;;;;;5044016;28;20068;-64
2022/07/05 01:43:22;;;;;;;2.97;2.13;;;;;;;;;;5050231;28;20651;-64
2022/07/05 01:45:48;;;;;;;3.25;2.20;;;;;;;;;;5050381;28;20021;-65
2022/07/05 01:48:19;;;;;;;4.43;2.47;;;;;;;;;;5045155;28;20025;-64
2022/07/05 01:50:48;;;;;;;5.78;2.50;;;;;;;;;;5035476;28;20068;-64
2022/07/05 01:53:41;;;;;;;4.10;2.45;;;;;;;;;;5041392;28;20052;-64
2022/07/05 01:56:06;;;;;;;4.73;2.57;;;;;;;;;;5043206;28;20427;-64
2022/07/05 01:58:32;;;;;;;9.50;3.33;;;;;;;;;;5030481;28;20531;-64
2022/07/05 02:00:58;;;;;;;4.65;2.45;;;;;;;;;;5030113;28;20087;-64
2022/07/05 02:03:24;;;;;;;3.70;2.20;;;;;;;;;;5039697;28;20029;-64
2022/07/05 02:05:50;;;;;;;6.03;2.60;;;;;;;;;;5044453;28;20021;-64
2022/07/05 02:08:17;;;;;;;5.07;2.33;;;;;;;;;;5039402;28;20040;-64
2022/07/05 02:10:43;;;;;;;3.38;2.35;;;;;;;;;;5044288;28;20043;-64
2022/07/05 02:13:09;;;;;;;6.05;2.67;;;;;;;;;;5043484;28;20112;-64
2022/07/05 02:15:36;;;;;;;3.10;2.30;;;;;;;;;;5049472;28;20095;-64
2022/07/05 02:18:03;;;;;;;4.18;2.65;;;;;;;;;;5048973;28;20065;-64
2022/07/05 02:20:29;;;;;;;4.10;2.38;;;;;;;;;;5031406;28;20116;-64
2022/07/05 02:22:55;;;;;;;4.15;2.70;;;;;;;;;;5042250;28;20040;-64
2022/07/05 02:25:20;;;;;;;4.35;2.63;;;;;;;;;;5036127;28;20044;-64
2022/07/05 02:27:46;;;;;;;3.75;2.50;;;;;;;;;;5030088;28;20029;-64
2022/07/05 02:30:12;;;;;;;6.20;2.85;;;;;;;;;;5029381;28;20052;-64
2022/07/05 02:32:37;;;;;;;6.40;2.70;;;;;;;;;;5028066;28;20042;-64
2022/07/05 02:35:04;;;;;;;5.03;2.40;;;;;;;;;;5047329;28;20043;-64
2022/07/05 02:37:29;;;;;;;4.03;2.78;;;;;;;;;;5041849;28;20045;-64
2022/07/05 02:39:55;;;;;;;3.67;2.45;;;;;;;;;;5049554;28;20593;-64
2022/07/05 02:42:21;;;;;;;4.70;2.90;;;;;;;;;;5048743;28;20116;-64
2022/07/05 02:44:46;;;;;;;4.70;2.70;;;;;;;;;;5048761;28;20404;-64
2022/07/05 02:47:11;;;;;;;5.85;2.72;;;;;;;;;;5047975;28;20044;-64
2022/07/05 02:49:36;;;;;;;4.35;2.50;;;;;;;;;;5044900;28;20048;-64
2022/07/05 02:52:02;;;;;;;5.10;2.75;;;;;;;;;;5048291;28;20043;-64
2022/07/05 02:54:27;;;;;;;4.68;3.00;;;;;;;;;;5047701;28;20566;-64
2022/07/05 02:56:53;;;;;;;6.18;2.72;;;;;;;;;;5039275;28;20507;-64
2022/07/05 02:59:18;;;;;;;3.70;2.97;;;;;;;;;;5047734;28;20041;-64
2022/07/05 03:01:43;;;;;;;3.17;2.42;;;;;;;;;;5046205;28;20033;-64
2022/07/05 03:04:09;;;;;;;3.75;2.72;;;;;;;;;;5042144;28;20086;-64
2022/07/05 03:06:35;;;;;;;4.07;2.58;;;;;;;;;;5046912;28;20036;-64
2022/07/05 03:09:01;;;;;;;4.38;2.80;;;;;;;;;;5047612;28;20029;-64
2022/07/05 03:11:26;;;;;;;3.90;2.67;;;;;;;;;;5048233;28;20091;-64
2022/07/05 03:13:51;;;;;;;4.00;2.75;;;;;;;;;;5048472;28;20482;-64
2022/07/05 03:16:17;;;;;;;4.30;2.72;;;;;;;;;;5048495;28;20535;-64
2022/07/05 03:18:42;;;;;;;6.28;3.10;;;;;;;;;;5046201;28;20562;-64
2022/07/05 03:21:07;;;;;;;6.13;2.78;;;;;;;;;;5047122;28;20562;-64
2022/07/05 03:23:33;;;;;;;5.55;2.75;;;;;;;;;;5037362;28;20083;-64
2022/07/05 03:25:58;;;;;;;4.50;2.42;;;;;;;;;;5047369;28;20135;-64
2022/07/05 03:28:23;;;;;;;3.50;2.65;;;;;;;;;;5047576;28;20119;-64
2022/07/05 03:30:49;;;;;;;4.57;2.65;;;;;;;;;;5037932;28;20020;-64
2022/07/05 03:33:14;;;;;;;4.68;2.50;;;;;;;;;;5046228;28;20036;-64
2022/07/05 03:35:39;;;;;;;5.65;2.55;;;;;;;;;;5044039;28;20400;-64
2022/07/05 03:38:05;;;;;;;4.13;2.60;;;;;;;;;;5039227;28;20463;-64
2022/07/05 03:40:30;;;;;;;7.82;2.85;;;;;;;;;;5041987;28;20413;-64
2022/07/05 03:42:55;;;;;;;5.10;3.13;;;;;;;;;;5041233;28;20025;-64
2022/07/05 03:45:21;;;;;;;5.43;2.60;;;;;;;;;;5040355;28;20558;-64
2022/07/05 03:47:46;;;;;;;3.47;2.72;;;;;;;;;;5037499;28;20497;-64
2022/07/05 03:50:12;;;;;;;4.25;2.40;;;;;;;;;;5044381;28;20053;-64
2022/07/05 03:52:38;;;;;;;5.68;3.10;;;;;;;;;;5039854;28;20512;-64
2022/07/05 03:55:04;;;;;;;5.65;2.72;;;;;;;;;;5041313;28;20067;-64
2022/07/05 03:57:29;;;;;;;3.63;2.65;;;;;;;;;;5043058;28;20962;-64
2022/07/05 03:59:55;;;;;;;8.50;3.33;;;;;;;;;;5042656;28;20639;-64
2022/07/05 04:02:20;;;;;;;4.63;2.70;;;;;;;;;;5040057;28;20813;-64
2022/07/05 04:04:45;;;;;;;5.38;2.88;;;;;;;;;;5040718;28;20060;-64
2022/07/05 04:07:11;;;;;;;4.03;2.53;;;;;;;;;;5045319;28;20013;-64
2022/07/05 04:09:36;;;;;;;4.75;2.60;;;;;;;;;;5046097;28;20025;-64
2022/07/05 04:12:02;;;;;;;3.83;2.83;;;;;;;;;;5047729;28;20065;-64
2022/07/05 04:14:27;;;;;;;6.78;2.67;;;;;;;;;;5047818;28;20118;-64
2022/07/05 04:16:52;;;;;;;3.88;2.80;;;;;;;;;;5047447;28;20515;-63
2022/07/05 04:19:18;;;;;;;7.00;2.70;;;;;;;;;;5039623;28;20024;-64
2022/07/05 04:21:43;;;;;;;6.57;2.90;;;;;;;;;;5046919;28;20017;-63
2022/07/05 04:24:10;;;;;;;7.60;2.78;;;;;;;;;;5044952;28;20645;-64
2022/07/05 04:26:35;;;;;;;7.00;2.78;;;;;;;;;;5044281;28;20040;-64
2022/07/05 04:29:01;;;;;;;3.53;2.50;;;;;;;;;;5039945;28;20040;-64
2022/07/05 04:31:26;;;;;;;5.38;3.00;;;;;;;;;;5046151;28;20095;-64
2022/07/05 04:33:51;;;;;;;4.65;2.90;;;;;;;;;;5043230;28;20028;-64
2022/07/05 04:36:17;;;;;;;6.78;2.80;;;;;;;;;;5047330;28;20029;-64
2022/07/05 04:38:42;;;;;;;5.22;3.22;;;;;;;;;;5049318;28;20040;-64
2022/07/05 04:41:08;;;;;;;5.88;3.05;;;;;;;;;;5051503;28;20051;-64
2022/07/05 04:43:34;;;;;;;5.28;3.17;;;;;;;;;;5048927;28;20029;-64
2022/07/05 04:45:59;;;;;;;7.57;3.03;;;;;;;;;;5050416;28;20028;-64
2022/07/05 04:48:25;;;;;;;5.43;3.08;;;;;;;;;;5047370;28;20068;-64
2022/07/05 04:50:50;;;;;;;5.10;3.05;;;;;;;;;;5045928;28;20118;-64
2022/07/05 04:53:15;;;;;;;6.00;3.30;;;;;;;;;;5049044;28;20623;-64
2022/07/05 04:55:41;;;;;;;5.25;3.30;;;;;;;;;;5051270;28;20120;-64
2022/07/05 04:58:06;;;;;;;7.50;4.40;;;;;;;;;;5050969;28;20035;-64
2022/07/05 05:00:32;;;;;;;8.35;3.72;;;;;;;;;;5051661;28;20051;-64
2022/07/05 05:02:57;;;;;;;6.97;3.67;;;;;;;;;;5043400;28;20523;-64
2022/07/05 05:05:22;;;;;;;6.20;3.85;;;;;;;;;;5048746;28;20037;-64
2022/07/05 05:07:48;;;;;;;8.18;4.00;;;;;;;;;;5047861;28;20085;-64
2022/07/05 05:10:13;;;;;;;9.68;4.32;;;;;;;;;;5046851;28;20095;-64
2022/07/05 05:12:39;;;;;;;8.60;4.05;;;;;;;;;;5049012;28;20033;-64
2022/07/05 05:15:08;;;;;;;9.70;4.50;;;;;;;;;;5046087;28;20612;-64
2022/07/05 05:17:35;;;;;;;7.38;4.40;;;;;;;;;;5039179;28;20033;-64
2022/07/05 05:20:02;;;;;;;8.07;3.90;;;;;;;;;;5047499;28;20068;-64
2022/07/05 05:22:27;;;;;;;12.27;4.57;;;;;;;;;;5047570;28;20496;-64
2022/07/05 05:24:53;;;;;;;8.85;4.50;;;;;;;;;;5050866;28;20078;-64
2022/07/05 05:27:18;;;;;;;8.20;4.75;;;;;;;;;;5050755;28;20055;-64
2022/07/05 05:29:43;;;;;;;13.60;4.93;;;;;;;;;;5048583;28;20029;-64
2022/07/05 05:32:09;;;;;;;10.35;4.88;;;;;;;;;;5039779;28;20044;-64
2022/07/05 05:34:34;;;;;;;9.52;4.82;;;;;;;;;;5049206;28;20033;-64
2022/07/05 05:36:59;;;;;;;11.15;4.57;;;;;;;;;;5047681;28;20036;-64
2022/07/05 05:39:24;;;;;;;13.27;5.95;;;;;;;;;;5048089;28;20033;-64
2022/07/05 05:41:50;;;;;;;9.45;4.60;;;;;;;;;;5048182;28;20041;-64
2022/07/05 05:44:15;;;;;;;8.52;4.47;;;;;;;;;;5042870;28;20069;-64
2022/07/05 05:46:41;;;;;;;10.13;4.50;;;;;;;;;;5046427;28;20619;-64
2022/07/05 05:49:06;;;;;;;11.02;4.68;;;;;;;;;;5043741;28;20017;-64
2022/07/05 05:51:32;;;;;;;13.05;5.28;;;;;;;;;;5047714;28;20056;-63
2022/07/05 05:53:57;;;;;;;8.88;5.07;;;;;;;;;;5049547;28;20526;-64
2022/07/05 05:56:22;;;;;;;10.68;5.28;;;;;;;;;;5049718;28;20489;-64
2022/07/05 05:58:48;;;;;;;14.40;5.00;;;;;;;;;;5049951;28;20041;-64
2022/07/05 06:01:13;;;;;;;10.23;4.78;;;;;;;;;;5048036;28;20043;-64
2022/07/05 06:03:38;;;;;;;10.75;4.50;;;;;;;;;;5049069;28;20025;-64
2022/07/05 06:06:04;;;;;;;9.27;4.90;;;;;;;;;;5048389;28;20132;-64
2022/07/05 06:08:29;;;;;;;10.77;5.32;;;;;;;;;;5044666;28;20044;-64
2022/07/05 06:10:55;;;;;;;12.70;5.32;;;;;;;;;;5048762;28;20033;-64
2022/07/05 06:13:20;;;;;;;10.90;4.75;;;;;;;;;;5047087;28;20021;-64
2022/07/05 06:15:45;;;;;;;11.10;4.90;;;;;;;;;;5049017;28;20070;-64
2022/07/05 06:18:12;;;;;;;8.35;4.20;;;;;;;;;;5043670;28;20038;-64
2022/07/05 06:20:38;;;;;;;11.10;5.00;;;;;;;;;;5045162;28;20819;-64
2022/07/05 06:23:05;;;;;;;10.88;4.45;;;;;;;;;;5044351;28;20052;-64
2022/07/05 06:25:31;;;;;;;9.77;4.45;;;;;;;;;;5042053;28;20050;-64
2022/07/05 06:28:00;;;;;;;15.57;4.80;;;;;;;;;;5036256;28;20083;-65
2022/07/05 06:30:28;;;;;;;7.13;4.20;;;;;;;;;;5042411;28;21051;-64
2022/07/05 06:32:54;;;;;;;8.52;4.53;;;;;;;;;;5042168;28;20040;-64
2022/07/05 06:35:20;;;;;;;8.55;4.60;;;;;;;;;;5046469;28;20032;-65
2022/07/05 06:37:53;;;;;;;6.85;4.25;;;;;;;;;;5046798;28;20040;-62
2022/07/05 06:40:26;;;;;;;9.52;4.30;;;;;;;;;;5042867;28;20684;-63
2022/07/05 06:42:53;;;;;;;12.10;5.05;;;;;;;;;;5046487;28;20575;-64
2022/07/05 06:45:19;;;;;;;15.05;4.22;;;;;;;;;;5042580;28;20710;-64
2022/07/05 06:47:44;;;;;;;13.20;5.00;;;;;;;;;;5042365;28;20033;-64
2022/07/05 06:50:10;;;;;;;10.38;4.15;;;;;;;;;;5040511;28;20095;-64
2022/07/05 06:52:36;;;;;;;11.80;4.70;;;;;;;;;;5030489;28;20038;-64
2022/07/05 06:55:02;;;;;;;14.45;5.22;;;;;;;;;;5029588;28;20029;-64
2022/07/05 06:57:28;;;;;;;11.55;5.25;;;;;;;;;;5038077;28;20087;-64
2022/07/05 06:59:54;;;;;;;15.80;5.30;;;;;;;;;;5043115;28;20059;-64
2022/07/05 07:02:19;;;;;;;12.00;5.53;;;;;;;;;;5044235;28;20036;-63
2022/07/05 07:04:45;;;;;;;15.38;6.05;;;;;;;;;;5042590;28;20568;-64
2022/07/05 07:09:59;;;;;;;11.73;6.30;;;;;;;;;;5040305;28;20530;-65
2022/07/05 07:12:25;;;;;;;13.93;6.45;;;;;;;;;;5045852;28;20567;-65
2022/07/05 07:14:50;;;;;;;12.05;6.15;;;;;;;;;;5045080;28;20139;-65
2022/07/05 07:17:16;;;;;;;20.83;6.80;;;;;;;;;;5020075;28;20581;-65
2022/07/05 07:19:41;;;;;;;19.65;7.10;;;;;;;;;;5020614;28;20556;-64
2022/07/05 07:22:06;;;;;;;22.35;6.75;;;;;;;;;;5027765;28;20029;-64
2022/07/05 07:24:32;;;;;;;15.25;6.88;;;;;;;;;;5020839;28;20052;-64
2022/07/05 07:27:03;;;;;;;16.83;7.43;;;;;;;;;;5020403;28;20064;-64
2022/07/05 07:29:30;;;;;;;20.70;7.28;;;;;;;;;;5023165;28;20067;-64
2022/07/05 07:31:57;;;;;;;19.67;8.00;;;;;;;;;;5024234;28;20068;-65
2022/07/05 07:34:23;;;;;;;19.25;7.63;;;;;;;;;;5019782;28;20037;-65
2022/07/05 07:36:49;;;;;;;19.45;7.35;;;;;;;;;;5025047;28;20029;-64
2022/07/05 07:39:15;;;;;;;22.33;7.78;;;;;;;;;;5021630;28;20067;-65
2022/07/05 07:41:40;;;;;;;20.35;7.57;;;;;;;;;;5023512;28;20934;-65
2022/07/05 07:44:05;;;;;;;14.82;7.25;;;;;;;;;;5022249;28;20484;-65
2022/07/05 07:46:31;;;;;;;19.27;8.10;;;;;;;;;;5023936;28;20049;-65
2022/07/05 07:48:57;;;;;;;20.13;7.55;;;;;;;;;;5021761;28;20037;-65
2022/07/05 07:51:23;;;;;;;21.85;7.60;;;;;;;;;;5022838;28;20064;-65
2022/07/05 07:53:48;;;;;;;16.20;7.50;;;;;;;;;;5021646;28;20046;-65
2022/07/05 07:56:14;;;;;;;18.05;7.78;;;;;;;;;;5020048;28;20611;-65
2022/07/05 07:58:39;;;;;;;15.75;7.75;;;;;;;;;;5021818;28;20074;-66
2022/07/05 08:01:10;;;;;;;13.80;7.60;;;;;;;;;;5024319;28;20029;-66
2022/07/05 08:03:36;;;;;;;17.60;7.47;;;;;;;;;;5021332;28;20072;-65
2022/07/05 08:06:01;;;;;;;13.07;6.85;;;;;;;;;;5022414;28;20072;-65
2022/07/05 08:08:27;;;;;;;14.25;6.75;;;;;;;;;;5019913;28;20072;-66
2022/07/05 08:10:52;;;;;;;17.17;7.55;;;;;;;;;;5025281;28;20048;-66
2022/07/05 08:13:17;;;;;;;17.55;7.57;;;;;;;;;;5028346;28;20032;-66
2022/07/05 08:15:43;;;;;;;15.73;8.23;;;;;;;;;;5028050;28;20026;-67
2022/07/05 08:23:36;;;;;;;14.18;6.43;;;;;;;;;;5010153;28;20516;-64
2022/07/05 08:26:01;;;;;;;13.60;6.57;;;;;;;;;;5016538;28;20041;-65
2022/07/05 08:28:28;;;;;;;15.77;6.22;;;;;;;;;;5018071;28;20032;-64
2022/07/05 08:30:53;;;;;;;14.18;6.13;;;;;;;;;;5022046;28;20053;-65
2022/07/05 08:33:19;;;;;;;12.95;6.32;;;;;;;;;;5021436;28;20251;-67
2022/07/05 08:35:44;;;;;;;14.25;6.03;;;;;;;;;;5020961;28;20037;-65
2022/07/05 08:38:09;;;;;;;13.88;5.28;;;;;;;;;;5017944;28;20073;-65
2022/07/05 08:40:38;;;;;;;10.65;5.47;;;;;;;;;;5018939;28;20041;-66
2022/07/05 08:43:06;;;;;;;14.05;5.18;;;;;;;;;;5017240;28;20029;-66
2022/07/05 08:45:32;;;;;;;13.82;6.00;;;;;;;;;;5015896;28;20041;-65
2022/07/05 08:47:59;;;;;;;11.15;5.45;;;;;;;;;;5018800;28;20068;-66
2022/07/05 08:50:26;;;;;;;15.05;6.15;;;;;;;;;;5020519;28;20045;-65
2022/07/05 08:52:52;;;;;;;13.18;5.47;;;;;;;;;;5020723;28;20056;-65
2022/07/05 08:55:18;;;;;;;15.77;7.35;;;;;;;;;;5019045;28;20060;-65
2022/07/05 08:57:43;;;;;;;18.00;6.13;;;;;;;;;;5021576;28;20116;-65
2022/07/05 09:00:09;;;;;;;10.70;5.45;;;;;;;;;;5019274;28;20061;-65
2022/07/05 09:02:35;;;;;;;10.85;4.93;;;;;;;;;;5013899;28;20042;-65
2022/07/05 09:05:01;;;;;;;8.82;4.40;;;;;;;;;;5014440;28;20043;-65
2022/07/05 09:07:29;;;;;;;9.73;4.28;;;;;;;;;;5014800;28;20657;-65
2022/07/05 09:09:58;;;;;;;9.13;6.40;;;;;;;;;;5020815;28;20033;-64
2022/07/05 09:12:23;;;;;;;9.75;5.00;;;;;;;;;;5019517;28;20042;-65
2022/07/05 09:14:50;;;;;;;10.00;5.03;;;;;;;;;;5018543;28;20052;-65
2022/07/05 09:17:15;;;;;;;9.98;5.10;;;;;;;;;;5018289;28;20045;-64
2022/07/05 09:19:41;;;;;;;15.32;5.22;;;;;;;;;;5020170;28;20049;-66
2022/07/05 09:22:08;;;;;;;9.65;4.80;;;;;;;;;;5018771;28;20516;-65
2022/07/05 09:24:44;;;;;;;11.77;4.78;;;;;;;;;;5021296;28;20642;-65
2022/07/05 09:27:09;;;;;;;8.23;4.25;;;;;;;;;;5021729;28;20730;-65
2022/07/05 09:29:35;;;;;;;8.63;3.78;;;;;;;;;;5017562;28;20051;-64
2022/07/05 09:32:00;;;;;;;7.72;3.38;;;;;;;;;;5018679;28;20041;-65
2022/07/05 09:34:29;;;;;;;9.32;3.50;;;;;;;;;;5021126;28;20029;-65
2022/07/05 09:37:02;;;;;;;6.80;3.38;;;;;;;;;;5021840;28;20053;-66
2022/07/05 09:39:35;;;;;;;4.00;2.58;;;;;;;;;;5021376;28;20987;-66
2022/07/05 09:42:25;;;;;;;6.70;3.13;;;;;;;;;;5018673;28;20455;-65
2022/07/05 09:44:55;;;;;;;6.47;5.65;;;;;;;;;;5016066;28;20487;-65
2022/07/05 09:47:27;;;;;;;6.07;2.92;;;;;;;;;;5021572;28;20041;-65
2022/07/05 09:49:57;;;;;;;6.25;3.38;;;;;;;;;;5020318;28;20033;-64
2022/07/05 09:52:35;;;;;;;8.30;3.63;;;;;;;;;;5020840;28;20149;-64
2022/07/05 09:55:07;;;;;;;9.93;3.00;;;;;;;;;;5020523;28;20156;-64
2022/07/05 09:57:35;;;;;;;7.13;3.25;;;;;;;;;;5018810;28;20056;-64
2022/07/05 10:00:02;;;;;;;6.78;3.10;;;;;;;;;;5016102;28;20038;-64
2022/07/05 10:02:41;;;;;;;6.00;2.72;;;;;;;;;;5015137;28;20046;-64
2022/07/05 10:05:16;;;;;;;5.20;2.85;;;;;;;;;;5014128;28;20119;-64
2022/07/05 10:07:50;;;;;;;7.10;2.90;;;;;;;;;;5024405;28;20037;-65
2022/07/05 10:10:18;;;;;;;6.05;3.13;;;;;;;;;;5020382;28;20025;-64
2022/07/05 10:12:45;;;;;;;6.95;2.90;;;;;;;;;;5021354;28;20026;-64
2022/07/05 10:15:13;;;;;;;6.75;2.70;;;;;;;;;;5021497;28;20037;-65
2022/07/05 10:17:45;;;;;;;7.72;3.25;;;;;;;;;;5024405;28;20041;-65
2022/07/05 10:20:36;;;;;;;6.63;2.60;;;;;;;;;;5024019;28;20033;-65
2022/07/05 10:23:03;;;;;;;5.35;2.33;;;;;;;;;;5021659;28;20765;-64
2022/07/05 10:25:28;;;;;;;7.28;2.35;;;;;;;;;;5022177;28;20030;-64
2022/07/05 10:27:54;;;;;;;3.58;2.60;;;;;;;;;;5023606;28;20021;-64
2022/07/05 10:30:22;;;;;;;8.38;2.70;;;;;;;;;;5022184;28;20033;-65
2022/07/05 10:32:48;;;;;;;6.50;2.83;;;;;;;;;;5022147;28;20088;-65
2022/07/05 10:35:15;;;;;;;3.53;2.60;;;;;;;;;;5021798;28;20049;-64
2022/07/05 10:37:41;;;;;;;4.80;3.00;;;;;;;;;;5025057;28;20078;-65
2022/07/05 10:40:07;;;;;;;5.32;2.97;;;;;;;;;;5024012;28;20025;-65
2022/07/05 10:42:58;;;;;;;5.50;2.55;;;;;;;;;;5021133;28;20037;-65
2022/07/05 10:45:35;;;;;;;7.18;3.20;;;;;;;;;;5023564;28;20088;-65
2022/07/05 10:48:11;;;;;;;6.97;3.10;;;;;;;;;;5022005;28;20117;-64
2022/07/05 10:50:48;;;;;;;8.30;3.55;;;;;;;;;;5012194;28;20057;-64
2022/07/05 10:53:15;;;;;;;7.45;3.70;;;;;;;;;;5017489;28;20367;-64
2022/07/05 10:55:53;;;;;;;4.68;3.10;;;;;;;;;;5015451;28;20476;-65
2022/07/05 10:58:19;;;;;;;4.72;3.00;;;;;;;;;;5016056;28;20138;-65
2022/07/05 11:01:08;;;;;;;6.68;3.08;;;;;;;;;;5018325;28;21494;-65
2022/07/05 11:03:37;;;;;;;6.32;3.17;;;;;;;;;;5015706;28;20091;-65
2022/07/05 11:06:04;;;;;;;4.95;2.75;;;;;;;;;;5020378;28;20045;-65
2022/07/05 11:08:32;;;;;;;4.40;2.80;;;;;;;;;;5019201;28;20049;-66
2022/07/05 11:11:11;;;;;;;7.18;2.53;;;;;;;;;;5013300;28;20045;-66
2022/07/05 11:13:43;;;;;;;5.75;2.45;;;;;;;;;;5012580;28;20068;-65
2022/07/05 11:16:27;;;;;;;4.85;2.83;;;;;;;;;;5011785;28;20167;-65
2022/07/05 11:19:04;;;;;;;7.93;3.35;;;;;;;;;;5013272;28;20427;-65
2022/07/05 11:21:30;;;;;;;5.88;2.85;;;;;;;;;;5009201;28;20056;-64
2022/07/05 11:24:22;;;;;;;4.45;2.63;;;;;;;;;;5011846;28;20037;-64
2022/07/05 11:26:49;;;;;;;7.80;2.53;;;;;;;;;;5018477;28;20079;-64
2022/07/05 11:29:43;;;;;;;7.60;2.85;;;;;;;;;;5017911;28;20051;-66
2022/07/05 11:32:13;;;;;;;7.57;2.65;;;;;;;;;;5020737;28;20148;-65
2022/07/05 11:34:39;;;;;;;4.30;2.60;;;;;;;;;;5021751;28;20064;-65
2022/07/05 11:37:36;;;;;;;4.47;2.40;;;;;;;;;;5011890;28;20033;-66
2022/07/05 11:40:11;;;;;;;5.80;2.50;;;;;;;;;;5019956;28;20509;-65
2022/07/05 11:42:57;;;;;;;3.70;2.40;;;;;;;;;;5017402;28;20032;-64
2022/07/05 11:45:22;;;;;;;3.78;2.35;;;;;;;;;;5030723;28;20068;-66
2022/07/05 11:47:48;;;;;;;6.55;2.70;;;;;;;;;;5017748;28;20166;-65
2022/07/05 11:50:14;;;;;;;5.32;2.55;;;;;;;;;;5014013;28;20116;-65
2022/07/05 11:52:41;;;;;;;4.90;2.30;;;;;;;;;;5009789;28;20068;-65
2022/07/05 11:55:11;;;;;;;5.68;3.03;;;;;;;;;;5015727;28;20569;-66
2022/07/05 11:57:37;;;;;;;5.10;2.67;;;;;;;;;;5020818;28;20107;-66
2022/07/05 12:00:04;;;;;;;5.25;2.90;;;;;;;;;;5024001;28;20052;-65
2022/07/05 12:02:29;;;;;;;6.70;2.90;;;;;;;;;;5028603;28;20605;-66
2022/07/05 12:04:56;;;;;;;3.97;2.50;;;;;;;;;;5024196;28;20044;-65
2022/07/05 12:07:32;;;;;;;4.05;2.78;;;;;;;;;;5014358;28;20044;-65
2022/07/05 12:12:43;;;;;;;3.70;2.75;;;;;;;;;;5018420;28;20064;-65
2022/07/05 12:15:15;;;;;;;4.22;3.00;;;;;;;;;;5010810;28;20431;-65
2022/07/05 12:17:43;;;;;;;3.15;2.83;;;;;;;;;;5007976;28;20045;-66
2022/07/05 12:20:13;;;;;;;6.35;3.53;;;;;;;;;;5010357;28;20124;-66
2022/07/05 12:22:40;;;;;;;6.38;4.20;;;;;;;;;;5012335;28;20128;-66
2022/07/05 12:25:10;;;;;;;6.90;4.20;;;;;;;;;;5010463;28;20494;-65
2022/07/05 12:27:38;;;;;;;7.10;4.50;;;;;;;;;;5009148;28;21192;-65
2022/07/05 12:30:05;;;;;;;5.43;3.75;;;;;;;;;;5009660;28;20119;-65
2022/07/05 12:32:31;;;;;;;5.18;4.47;;;;;;;;;;5009062;28;20049;-65
2022/07/05 12:34:57;;;;;;;6.47;4.32;;;;;;;;;;5006589;28;20083;-65
2022/07/05 12:37:24;;;;;;;7.38;4.20;;;;;;;;;;5011987;28;20020;-65
2022/07/05 12:40:01;;;;;;;5.60;3.90;;;;;;;;;;5019496;28;20029;-64
2022/07/05 12:42:34;;;;;;;7.30;4.00;;;;;;;;;;5012573;28;20038;-66
2022/07/05 12:45:25;;;;;;;6.65;4.43;;;;;;;;;;5014691;28;20091;-65
2022/07/05 12:47:55;;;;;;;8.32;4.30;;;;;;;;;;5011211;28;20037;-65
2022/07/05 12:50:31;;;;;;;4.65;4.00;;;;;;;;;;5016328;28;20050;-65
2022/07/05 12:58:01;;;;;;;6.80;3.95;;;;;;;;;;5008104;28;20053;-65
2022/07/05 12:58:33;;;;;;;7.03;4.60;;;;;;;;;;5011190;28;20052;-65
2022/07/05 13:00:58;;;;;;;5.13;3.20;;;;;;;;;;5012489;28;20033;-65
2022/07/05 13:03:24;;;;;;;13.57;3.15;;;;;;;;;;5022942;28;20585;-65
2022/07/05 13:06:02;;;;;;;5.10;3.35;;;;;;;;;;5010905;28;20444;-65
2022/07/05 13:08:29;;;;;;;5.10;3.10;;;;;;;;;;5010798;28;20049;-65
2022/07/05 13:10:54;;;;;;;3.80;2.80;;;;;;;;;;5011010;28;20208;-65
2022/07/05 13:13:20;;;;;;;3.75;3.08;;;;;;;;;;5030378;28;20036;-65
2022/07/05 13:15:45;;;;;;;6.75;3.72;;;;;;;;;;5029176;28;20056;-65
2022/07/05 13:18:11;;;;;;;5.18;3.08;;;;;;;;;;5029860;28;20570;-66
2022/07/05 13:20:36;;;;;;;4.40;2.80;;;;;;;;;;5031176;28;20045;-66
2022/07/05 13:23:02;;;;;;;5.72;2.47;;;;;;;;;;5022724;28;20064;-65
2022/07/05 13:25:27;;;;;;;5.25;2.85;;;;;;;;;;5022702;28;20124;-66
2022/07/05 13:27:53;;;;;;;5.53;2.88;;;;;;;;;;5022042;28;20029;-65
2022/07/05 13:30:18;;;;;;;4.80;2.80;;;;;;;;;;5027067;28;20412;-65
2022/07/05 13:32:43;;;;;;;5.25;2.38;;;;;;;;;;5031097;28;20075;-65
2022/07/05 13:35:09;;;;;;;5.50;2.28;;;;;;;;;;5041043;28;20056;-65
2022/07/05 13:37:34;;;;;;;4.80;2.53;;;;;;;;;;5029612;28;20116;-65
2022/07/05 13:40:00;;;;;;;2.65;1.85;;;;;;;;;;5012998;28;20022;-65
2022/07/05 13:42:25;;;;;;;3.70;2.50;;;;;;;;;;5017176;28;21613;-66
2022/07/05 13:44:52;;;;;;;8.55;2.47;;;;;;;;;;5021820;28;20053;-65
2022/07/05 13:47:17;;;;;;;4.07;2.35;;;;;;;;;;5020497;28;20063;-65
2022/07/05 13:49:43;;;;;;;2.70;2.00;;;;;;;;;;5021238;28;20042;-65
2022/07/05 13:52:08;;;;;;;5.38;2.25;;;;;;;;;;5020344;28;20025;-65
2022/07/05 13:54:34;;;;;;;4.20;2.28;;;;;;;;;;5019052;28;20049;-65
2022/07/05 13:56:59;;;;;;;5.53;2.17;;;;;;;;;;5013044;28;20051;-66
2022/07/05 13:59:25;;;;;;;2.28;1.65;;;;;;;;;;5020038;28;20040;-65
2022/07/05 14:01:50;;;;;;;4.05;2.35;;;;;;;;;;5012275;28;20040;-65
2022/07/05 14:04:15;;;;;;;2.03;1.83;;;;;;;;;;5017447;28;20029;-64
2022/07/05 14:06:41;;;;;;;4.78;2.25;;;;;;;;;;5017858;28;20121;-68
2022/07/05 14:09:08;;;;;;;2.90;2.20;;;;;;;;;;5013951;28;20101;-66
2022/07/05 14:11:33;;;;;;;5.35;2.35;;;;;;;;;;5017748;28;20114;-66
2022/07/05 14:13:58;;;;;;;3.70;1.85;;;;;;;;;;5018109;28;20829;-66
2022/07/05 14:16:24;;;;;;;3.20;2.33;;;;;;;;;;5023515;28;20508;-66
2022/07/05 14:18:50;;;;;;;5.18;2.10;;;;;;;;;;5020719;28;20481;-66
2022/07/05 14:21:17;;;;;;;2.72;2.10;;;;;;;;;;5023450;28;20081;-67
2022/07/05 14:23:48;;;;;;;5.15;2.25;;;;;;;;;;5016617;28;20621;-65
2022/07/05 14:26:14;;;;;;;6.45;2.20;;;;;;;;;;5018247;28;20864;-66
2022/07/05 14:28:40;;;;;;;4.55;2.03;;;;;;;;;;5015921;28;20044;-66
2022/07/05 14:31:05;;;;;;;3.90;2.33;;;;;;;;;;5013592;28;20039;-65
2022/07/05 14:33:30;;;;;;;3.55;2.08;;;;;;;;;;5020279;28;20629;-67
2022/07/05 14:35:56;;;;;;;7.60;1.98;;;;;;;;;;5013865;28;20094;-66
2022/07/05 14:38:21;;;;;;;4.15;2.10;;;;;;;;;;5010338;28;20757;-66
2022/07/05 14:40:46;;;;;;;4.57;2.00;;;;;;;;;;5007223;28;20531;-66
2022/07/05 14:43:12;;;;;;;5.90;2.10;;;;;;;;;;5009885;28;20032;-68
2022/07/05 14:45:37;;;;;;;3.50;2.05;;;;;;;;;;5012931;28;20045;-67
2022/07/05 14:48:03;;;;;;;5.38;2.10;;;;;;;;;;5019422;28;20591;-68
2022/07/05 14:50:28;;;;;;;3.47;1.90;;;;;;;;;;5014122;28;20050;-67
2022/07/05 14:52:54;;;;;;;5.85;2.10;;;;;;;;;;5025783;28;20044;-67
2022/07/05 14:55:19;;;;;;;2.03;1.80;;;;;;;;;;5030300;28;20056;-67